createdAt,value
2022-08-23T00:00:26.141Z,0.081200004
2022-08-23T00:01:24.991Z,0.073080003
2022-08-23T00:02:23.424Z,0.056840003
2022-08-23T00:03:21.702Z,0.032480001
2022-08-23T00:04:16.058Z,0.024360001
2022-08-23T00:06:15.709Z,0.073080003
2022-08-23T00:07:10.259Z,0.081200004
2022-08-23T00:08:17.709Z,0.113680005
2022-08-23T00:09:20.666Z,0.081200004
2022-08-23T00:11:15.435Z,0.064960003
2022-08-23T00:13:19.273Z,0.048720002
2022-08-23T00:14:17.405Z,0.154280007
2022-08-23T00:15:43.407Z,0.064960003
2022-08-23T00:16:43.522Z,0.129920006
2022-08-23T00:17:40.302Z,0.040600002
2022-08-23T00:18:49.314Z,0.121800005
2022-08-23T00:18:49.585Z,0.121800005
2022-08-23T00:19:43.651Z,0.040600002
2022-08-23T00:21:40.497Z,0.129920006
2022-08-23T00:22:36.006Z,0.194880009
2022-08-23T00:23:36.506Z,0.040600002
2022-08-23T00:24:31.798Z,0.154280007
2022-08-23T00:24:40.770Z,0.154280007
2022-08-23T00:26:31.600Z,0.162400007
2022-08-23T00:27:31.313Z,0.089320004
2022-08-23T00:28:32.513Z,0.064960003
2022-08-23T00:29:37.266Z,0.064960003
2022-08-23T00:31:36.366Z,0.073080003
2022-08-23T00:32:31.425Z,0.138040006
2022-08-23T00:33:33.499Z,0.089320004
2022-08-23T00:34:29.982Z,0.146160007
2022-08-23T00:36:30.111Z,0.162400007
2022-08-23T00:37:33.464Z,0.097440004
2022-08-23T00:38:32.936Z,0.064960003
2022-08-23T00:38:35.262Z,0.064960003
2022-08-23T00:39:36.265Z,0.138040006
2022-08-23T00:41:33.688Z,0.056840003
2022-08-23T00:42:37.367Z,0.081200004
2022-08-23T00:43:33.562Z,0.21924001
2022-08-23T00:44:34.088Z,0.040600002
2022-08-23T00:46:38.943Z,0.056840003
2022-08-23T00:47:36.264Z,0.121800005
2022-08-23T00:48:38.112Z,0.097440004
2022-08-23T00:49:37.578Z,0.040600002
2022-08-23T00:50:34.994Z,0.089320004
2022-08-23T00:51:52.194Z,0.105560005
2022-08-23T00:51:52.648Z,0.105560005
2022-08-23T00:51:53.178Z,0.105560005
2022-08-23T00:52:37.361Z,0.089320004
2022-08-23T00:53:38.211Z,0.089320004
2022-08-23T00:54:38.848Z,0.056840003
2022-08-23T00:56:47.957Z,0.089320004
2022-08-23T00:57:52.759Z,0.089320004
2022-08-23T00:58:53.080Z,0.129920006
2022-08-23T01:00:48.975Z,0.178640008
2022-08-23T01:01:50.646Z,0.105560005
2022-08-23T01:02:47.895Z,0.113680005
2022-08-23T01:03:47.847Z,0.081200004
2022-08-23T01:03:57.125Z,0.081200004
2022-08-23T01:04:04.494Z,0.081200004
2022-08-23T01:05:44.476Z,0.097440004
2022-08-23T01:06:48.811Z,0.056840003
2022-08-23T01:07:44.359Z,0.081200004
2022-08-23T01:08:45.119Z,0.073080003
2022-08-23T01:09:41.337Z,0.048720002
2022-08-23T01:10:41.665Z,0.097440004
2022-08-23T01:11:39.818Z,0.097440004
2022-08-23T01:12:41.626Z,0.138040006
2022-08-23T01:13:39.559Z,0.129920006
2022-08-23T01:14:38.776Z,0.081200004
2022-08-23T01:15:41.620Z,0.097440004
2022-08-23T01:16:41.714Z,0.113680005
2022-08-23T01:17:37.201Z,0.170520008
2022-08-23T01:18:40.741Z,0.089320004
2022-08-23T01:19:36.438Z,0.113680005
2022-08-23T01:21:36.438Z,0.048720002
2022-08-23T01:22:35.742Z,0.064960003
2022-08-23T01:23:31.088Z,0.064960003
2022-08-23T01:25:06.052Z,0.097440004
2022-08-23T01:25:07.110Z,0.097440004
2022-08-23T01:26:29.494Z,0.121800005
2022-08-23T01:27:32.202Z,0.089320004
2022-08-23T01:28:27.718Z,0.146160007
2022-08-23T01:29:27.378Z,0.024360001
2022-08-23T01:31:29.812Z,0.129920006
2022-08-23T01:32:25.014Z,0.081200004
2022-08-23T01:33:25.070Z,0.138040006
2022-08-23T01:34:24.687Z,0.186760008
2022-08-23T01:35:28.791Z,0.048720002
2022-08-23T01:36:22.626Z,0.138040006
2022-08-23T01:37:25.099Z,0.097440004
2022-08-23T01:38:25.917Z,0.016240001
2022-08-23T01:39:23.967Z,0.113680005
2022-08-23T01:41:24.004Z,0.056840003
2022-08-23T01:42:23.723Z,0.105560005
2022-08-23T01:43:21.113Z,0.121800005
2022-08-23T01:44:27.432Z,0.154280007
2022-08-23T01:46:59.191Z,0.089320004
2022-08-23T01:47:58.195Z,0.121800005
2022-08-23T01:49:04.520Z,0.138040006
2022-08-23T01:49:08.416Z,0.138040006
2022-08-23T01:50:03.333Z,0.048720002
2022-08-23T01:51:01.915Z,0.129920006
2022-08-23T01:52:07.269Z,0.113680005
2022-08-23T01:53:03.794Z,0.056840003
2022-08-23T01:54:05.798Z,0.032480001
2022-08-23T01:56:05.566Z,0.056840003
2022-08-23T01:57:01.868Z,0.056840003
2022-08-23T01:58:04.432Z,0.040600002
2022-08-23T01:59:13.801Z,0.064960003
2022-08-23T02:00:15.600Z,0.113680005
2022-08-23T02:01:17.424Z,0.081200004
2022-08-23T02:02:18.680Z,0.089320004
2022-08-23T02:03:15.815Z,0.113680005
2022-08-23T02:04:16.106Z,0.170520008
2022-08-23T02:05:13.695Z,0.138040006
2022-08-23T02:05:19.146Z,0.138040006
2022-08-23T02:06:17.555Z,0.089320004
2022-08-23T02:07:14.708Z,0.064960003
2022-08-23T02:08:15.672Z,0.081200004
2022-08-23T02:09:19.505Z,0.138040006
2022-08-23T02:11:24.251Z,0.138040006
2022-08-23T02:12:20.120Z,0.097440004
2022-08-23T02:13:21.134Z,0.081200004
2022-08-23T02:14:22.540Z,0.203000009
2022-08-23T02:15:16.831Z,0.105560005
2022-08-23T02:16:26.299Z,0.105560005
2022-08-23T02:17:20.214Z,0.089320004
2022-08-23T02:18:20.850Z,0.097440004
2022-08-23T02:19:20.460Z,0.056840003
2022-08-23T02:21:24.493Z,0.081200004
2022-08-23T02:26:05.150Z,0.146160007
2022-08-23T02:27:05.382Z,0.081200004
2022-08-23T02:28:03.464Z,0.138040006
2022-08-23T02:29:03.458Z,0.056840003
2022-08-23T02:29:59.739Z,0.105560005
2022-08-23T02:31:01.384Z,0.097440004
2022-08-23T02:31:55.725Z,0.105560005
2022-08-23T02:32:55.007Z,0.146160007
2022-08-23T02:33:52.909Z,0.129920006
2022-08-23T02:35:05.251Z,0.081200004
2022-08-23T02:35:05.619Z,0.081200004
2022-08-23T02:36:50.904Z,0.121800005
2022-08-23T02:37:52.802Z,0.089320004
2022-08-23T02:38:48.121Z,0.097440004
2022-08-23T02:39:53.679Z,0.064960003
2022-08-23T02:40:46.202Z,0.032480001
2022-08-23T02:41:44.310Z,0.138040006
2022-08-23T02:42:40.804Z,0.121800005
2022-08-23T02:43:41.249Z,0.064960003
2022-08-23T02:44:37.967Z,0.105560005
2022-08-23T02:46:32.018Z,0.048720002
2022-08-23T02:47:31.061Z,0.048720002
2022-08-23T02:48:25.383Z,0.105560005
2022-08-23T02:49:27.410Z,0.105560005
2022-08-23T02:51:21.161Z,0.032480001
2022-08-23T02:52:12.927Z,0.081200004
2022-08-23T02:53:16.035Z,0.081200004
2022-08-23T02:54:10.568Z,0.073080003
2022-08-23T02:55:13.179Z,0.113680005
2022-08-23T02:56:07.457Z,0.113680005
2022-08-23T02:56:21.184Z,0.113680005
2022-08-23T02:56:21.461Z,0.113680005
2022-08-23T02:57:15.362Z,0.040600002
2022-08-23T02:58:11.017Z,0.089320004
2022-08-23T02:59:13.280Z,0.089320004
2022-08-23T03:01:10.316Z,0.073080003
2022-08-23T03:02:09.249Z,0.113680005
2022-08-23T03:03:09.627Z,0.073080003
2022-08-23T03:04:03.903Z,0.105560005
2022-08-23T03:06:24.817Z,0.105560005
2022-08-23T03:06:24.952Z,0.105560005
2022-08-23T03:06:25.512Z,0.105560005
2022-08-23T03:07:03.877Z,0.097440004
2022-08-23T03:07:59.276Z,0.040600002
2022-08-23T03:08:58.057Z,0.129920006
2022-08-23T03:09:53.880Z,0.048720002
2022-08-23T03:10:53.300Z,0.081200004
2022-08-23T03:11:48.856Z,0.162400007
2022-08-23T03:12:47.848Z,0.064960003
2022-08-23T03:13:46.075Z,0.113680005
2022-08-23T03:14:42.964Z,0.170520008
2022-08-23T03:17:20.683Z,0.073080003
2022-08-23T03:18:17.249Z,0.121800005
2022-08-23T03:19:12.490Z,0.024360001
2022-08-23T03:21:07.638Z,0.097440004
2022-08-23T03:22:06.884Z,0.097440004
2022-08-23T03:23:10.314Z,0.097440004
2022-08-23T03:24:10.577Z,0.073080003
2022-08-23T03:25:09.069Z,0.089320004
2022-08-23T03:26:12.786Z,0.032480001
2022-08-23T03:27:08.556Z,0.024360001
2022-08-23T03:28:09.443Z,0.024360001
2022-08-23T03:29:05.590Z,0.113680005
2022-08-23T03:31:05.306Z,0.097440004
2022-08-23T03:32:07.170Z,0.129920006
2022-08-23T03:33:03.927Z,0.032480001
2022-08-23T03:34:20.997Z,0.040600002
2022-08-23T03:36:12.442Z,0.097440004
2022-08-23T03:37:09.869Z,0.064960003
2022-08-23T03:38:09.497Z,0.097440004
2022-08-23T03:39:04.284Z,0.040600002
2022-08-23T03:40:03.619Z,0.105560005
2022-08-23T03:41:03.602Z,0.097440004
2022-08-23T03:42:06.705Z,0.056840003
2022-08-23T03:43:03.061Z,0.129920006
2022-08-23T03:44:05.972Z,0.073080003
2022-08-23T03:45:02.229Z,0.064960003
2022-08-23T03:46:56.866Z,0.121800005
2022-08-23T03:47:59.659Z,0.089320004
2022-08-23T03:48:59.597Z,0.154280007
2022-08-23T03:49:55.216Z,0.040600002
2022-08-23T03:51:00.932Z,0.138040006
2022-08-23T03:51:56.262Z,0.024360001
2022-08-23T03:52:54.893Z,0.073080003
2022-08-23T03:53:50.149Z,0.040600002
2022-08-23T03:54:49.288Z,0.097440004
2022-08-23T03:55:56.919Z,0.056840003
2022-08-23T03:56:55.714Z,0.146160007
2022-08-23T03:57:54.985Z,0.146160007
2022-08-23T03:58:59.465Z,0.089320004
2022-08-23T04:01:29.059Z,0.097440004
2022-08-23T04:02:30.660Z,0.138040006
2022-08-23T04:03:31.505Z,0.129920006
2022-08-23T04:04:29.567Z,0.048720002
2022-08-23T04:06:33.905Z,0.081200004
2022-08-23T04:07:31.808Z,0.121800005
2022-08-23T04:08:34.088Z,0.064960003
2022-08-23T04:09:30.947Z,0.105560005
2022-08-23T04:10:33.274Z,0.113680005
2022-08-23T04:11:29.712Z,0.048720002
2022-08-23T04:12:34.483Z,0.097440004
2022-08-23T04:13:32.933Z,0.121800005
2022-08-23T04:14:34.029Z,0.089320004
2022-08-23T04:15:33.548Z,0.073080003
2022-08-23T04:16:35.826Z,0.073080003
2022-08-23T04:17:40.684Z,0.105560005
2022-08-23T04:18:37.759Z,0.121800005
2022-08-23T04:19:43.073Z,0.154280007
2022-08-23T04:21:38.323Z,0.113680005
2022-08-23T04:22:35.921Z,0.121800005
2022-08-23T04:23:38.863Z,0.113680005
2022-08-23T04:24:34.649Z,0.048720002
2022-08-23T04:25:39.853Z,0.113680005
2022-08-23T04:26:36.900Z,0.186760008
2022-08-23T04:27:41.156Z,0.178640008
2022-08-23T04:28:37.516Z,0.089320004
2022-08-23T04:29:39.370Z,0.105560005
2022-08-23T04:31:43.843Z,0.129920006
2022-08-23T04:32:47.095Z,0.146160007
2022-08-23T04:33:43.923Z,0.089320004
2022-08-23T04:34:45.799Z,0.097440004
2022-08-23T04:34:51.477Z,0.097440004
2022-08-23T04:36:51.722Z,0.113680005
2022-08-23T04:36:52.537Z,0.113680005
2022-08-23T04:36:55.343Z,0.113680005
2022-08-23T04:37:44.072Z,0.146160007
2022-08-23T04:38:50.321Z,0.186760008
2022-08-23T04:39:51.770Z,0.138040006
2022-08-23T04:40:51.215Z,0.162400007
2022-08-23T04:41:57.945Z,0.064960003
2022-08-23T04:42:58.808Z,0.186760008
2022-08-23T04:43:59.082Z,0.138040006
2022-08-23T04:46:31.783Z,0.073080003
2022-08-23T04:47:29.777Z,0.097440004
2022-08-23T04:48:29.653Z,0.138040006
2022-08-23T04:49:25.046Z,0.178640008
2022-08-23T04:51:31.237Z,0.073080003
2022-08-23T04:52:33.377Z,0.121800005
2022-08-23T04:53:29.633Z,0.22736001
2022-08-23T04:54:30.263Z,0.22736001
2022-08-23T04:56:26.654Z,0.203000009
2022-08-23T04:57:26.557Z,0.048720002
2022-08-23T04:58:22.330Z,0.203000009
2022-08-23T04:59:26.450Z,0.105560005
2022-08-23T05:00:19.887Z,0.056840003
2022-08-23T05:01:19.221Z,0.186760008
2022-08-23T05:02:13.944Z,0.154280007
2022-08-23T05:03:14.332Z,0.121800005
2022-08-23T05:04:12.347Z,0.146160007
2022-08-23T05:06:06.065Z,0.186760008
2022-08-23T05:07:06.792Z,0.178640008
2022-08-23T05:08:02.378Z,0.138040006
2022-08-23T05:09:07.737Z,0.203000009
2022-08-23T05:10:01.014Z,0.129920006
2022-08-23T05:11:58.510Z,0.186760008
2022-08-23T05:12:59.006Z,0.316680014
2022-08-23T05:13:56.893Z,0.341040015
2022-08-23T05:14:59.591Z,0.170520008
2022-08-23T05:16:54.298Z,0.243600011
2022-08-23T05:17:49.438Z,0.186760008
2022-08-23T05:18:50.373Z,0.089320004
2022-08-23T05:19:47.132Z,0.154280007
2022-08-23T05:20:47.358Z,0.211120009
2022-08-23T05:21:40.377Z,0.113680005
2022-08-23T05:22:41.556Z,0.243600011
2022-08-23T05:23:40.264Z,0.235480011
2022-08-23T05:24:37.590Z,0.203000009
2022-08-23T05:26:32.266Z,0.105560005
2022-08-23T05:27:34.386Z,0.308560014
2022-08-23T05:29:43.238Z,0.316680014
2022-08-23T05:30:47.891Z,0.373520017
2022-08-23T05:30:56.594Z,0.373520017
2022-08-23T05:30:57.280Z,0.373520017
2022-08-23T05:31:43.091Z,0.45472002
2022-08-23T05:32:38.390Z,0.251720011
2022-08-23T05:33:38.609Z,0.235480011
2022-08-23T05:34:35.680Z,0.251720011
2022-08-23T05:36:36.175Z,0.211120009
2022-08-23T05:37:36.374Z,0.276080012
2022-08-23T05:38:31.572Z,0.324800014
2022-08-23T05:39:36.448Z,0.267960012
2022-08-23T05:41:37.668Z,0.365400016
2022-08-23T05:41:38.026Z,0.365400016
2022-08-23T05:42:29.551Z,0.495320022
2022-08-23T05:43:25.369Z,0.300440013
2022-08-23T05:44:25.687Z,0.406000018
2022-08-23T05:45:23.776Z,0.414120018
2022-08-23T05:46:26.624Z,0.430360019
2022-08-23T05:46:28.453Z,0.430360019
2022-08-23T05:47:24.863Z,0.389760017
2022-08-23T05:48:18.770Z,0.43848002
2022-08-23T05:49:16.896Z,0.259840012
2022-08-23T05:51:14.099Z,0.357280016
2022-08-23T05:52:18.420Z,0.292320013
2022-08-23T05:53:12.845Z,0.43848002
2022-08-23T05:54:15.367Z,0.389760017
2022-08-23T05:55:08.600Z,0.43848002
2022-08-23T05:56:08.448Z,0.406000018
2022-08-23T05:57:04.628Z,0.552160025
2022-08-23T05:58:04.340Z,0.357280016
2022-08-23T05:59:00.969Z,0.284200013
2022-08-23T06:00:00.788Z,0.609000027
2022-08-23T06:01:02.130Z,0.568400025
2022-08-23T06:01:54.863Z,0.43848002
2022-08-23T06:02:58.273Z,0.511560023
2022-08-23T06:03:50.973Z,0.552160025
2022-08-23T06:04:57.429Z,0.511560023
2022-08-23T06:06:47.873Z,0.479080021
2022-08-23T06:07:48.219Z,0.511560023
2022-08-23T06:08:43.683Z,0.535920024
2022-08-23T06:09:44.029Z,0.584640026
2022-08-23T06:10:42.362Z,0.633360028
2022-08-23T06:11:37.804Z,0.592760026
2022-08-23T06:12:38.068Z,0.738920033
2022-08-23T06:13:35.041Z,0.66584003
2022-08-23T06:14:34.261Z,0.560280025
2022-08-23T06:16:28.461Z,0.755160034
2022-08-23T06:17:32.066Z,0.617120028
2022-08-23T06:18:28.657Z,0.495320022
2022-08-23T06:20:07.873Z,0.568400025
2022-08-23T06:22:58.541Z,0.649600029
2022-08-23T06:23:58.198Z,0.803880036
2022-08-23T06:24:53.554Z,0.649600029
2022-08-23T06:25:53.629Z,0.738920033
2022-08-23T06:26:47.174Z,0.698320031
2022-08-23T06:27:47.793Z,0.714560032
2022-08-23T06:28:51.063Z,0.828240037
2022-08-23T06:28:51.086Z,0.828240037
2022-08-23T06:29:42.773Z,0.714560032
2022-08-23T06:31:37.423Z,0.795760036
2022-08-23T06:32:31.288Z,0.787640035
2022-08-23T06:33:30.318Z,0.787640035
2022-08-23T06:34:24.711Z,0.787640035
2022-08-23T06:35:38.011Z,0.820120037
2022-08-23T06:35:39.298Z,0.820120037
2022-08-23T06:36:20.841Z,0.941920042
2022-08-23T06:37:14.580Z,0.747040033
2022-08-23T06:38:13.098Z,0.982520044
2022-08-23T06:39:07.085Z,0.998760045
2022-08-23T06:40:08.489Z,0.925680041
2022-08-23T06:42:13.259Z,0.771400034
2022-08-23T06:42:28.007Z,0.771400034
2022-08-23T06:42:58.757Z,0.795760036
2022-08-23T06:43:52.805Z,0.828240037
2022-08-23T06:44:51.350Z,1.039360046
2022-08-23T06:46:46.810Z,1.039360046
2022-08-23T06:47:38.551Z,1.201760054
2022-08-23T06:48:36.371Z,1.193639994
2022-08-23T06:49:33.499Z,0.990640044
2022-08-23T06:50:38.614Z,1.193639994
2022-08-23T06:51:34.473Z,1.250480056
2022-08-23T06:52:33.382Z,1.234240055
2022-08-23T06:53:27.751Z,1.185520053
2022-08-23T06:54:26.703Z,1.421000004
2022-08-23T06:56:19.852Z,1.307320118
2022-08-23T06:57:15.043Z,1.437240124
2022-08-23T06:58:16.701Z,1.518440008
2022-08-23T06:59:08.479Z,1.55904007
2022-08-23T07:00:09.854Z,1.356040001
2022-08-23T07:01:01.730Z,1.088080049
2022-08-23T07:02:03.242Z,1.688960075
2022-08-23T07:02:57.568Z,1.705200076
2022-08-23T07:03:57.703Z,1.648360014
2022-08-23T07:04:54.475Z,1.981280088
2022-08-23T07:06:47.810Z,2.078720093
2022-08-23T07:07:44.315Z,2.184280157
2022-08-23T07:08:41.364Z,2.257359982
2022-08-23T07:09:36.713Z,2.728320122
2022-08-23T07:11:30.107Z,2.980040073
2022-08-23T07:12:32.005Z,3.053120136
2022-08-23T07:13:24.297Z,3.191160202
2022-08-23T07:14:26.111Z,3.223640203
2022-08-23T07:15:18.093Z,3.069360256
2022-08-23T07:17:12.952Z,3.329200268
2022-08-23T07:18:14.634Z,3.55656004
2022-08-23T07:19:07.249Z,4.00316
2022-08-23T07:20:09.365Z,3.345440149
2022-08-23T07:21:04.174Z,3.337320089
2022-08-23T07:22:01.370Z,3.548440218
2022-08-23T07:22:57.606Z,3.873240232
2022-08-23T07:23:55.952Z,3.532200098
2022-08-23T07:24:50.755Z,3.897600174
2022-08-23T07:25:50.487Z,3.572800159
2022-08-23T07:26:45.880Z,4.295480251
2022-08-23T07:27:45.490Z,4.181800365
2022-08-23T07:28:40.778Z,4.263000011
2022-08-23T07:29:40.520Z,4.246760368
2022-08-23T07:31:35.475Z,3.954440117
2022-08-23T07:32:30.388Z,4.173680305
2022-08-23T07:33:33.570Z,4.587800026
2022-08-23T07:35:12.749Z,5.196800232
2022-08-23T07:36:12.194Z,4.01940012
2022-08-23T07:37:11.449Z,3.905720234
2022-08-23T07:37:15.730Z,3.905720234
2022-08-23T07:38:07.646Z,3.995040178
2022-08-23T07:39:03.105Z,4.392920017
2022-08-23T07:40:39.248Z,5.294239998
2022-08-23T07:42:54.623Z,-0.024360001
2022-08-23T07:43:35.987Z,5.164319992
2022-08-23T07:44:36.598Z,4.50660038
2022-08-23T07:46:34.398Z,4.620280266
2022-08-23T07:47:36.392Z,5.180560112
2022-08-23T07:48:53.096Z,4.701480389
2022-08-23T07:48:53.441Z,4.701480389
2022-08-23T07:48:53.892Z,4.701480389
2022-08-23T07:49:32.956Z,5.131840229
2022-08-23T07:50:34.619Z,4.750200272
2022-08-23T07:51:31.646Z,5.700240135
2022-08-23T07:52:33.113Z,5.148080349
2022-08-23T07:53:37.661Z,5.188680172
2022-08-23T07:53:37.752Z,5.188680172
2022-08-23T07:54:31.818Z,5.099360466
2022-08-23T07:56:32.931Z,5.310480118
2022-08-23T07:57:27.226Z,5.269880295
2022-08-23T07:58:27.124Z,5.895120144
2022-08-23T07:59:32.738Z,5.050640106
2022-08-23T07:59:34.739Z,5.050640106
2022-08-23T08:01:27.709Z,5.318600178
2022-08-23T08:02:24.557Z,5.050640106
2022-08-23T08:03:26.595Z,5.399800301
2022-08-23T08:04:23.730Z,5.075000286
2022-08-23T08:05:25.246Z,4.896360397
2022-08-23T08:06:24.868Z,5.513480186
2022-08-23T08:07:21.817Z,5.131840229
2022-08-23T08:08:23.565Z,5.278000355
2022-08-23T08:09:20.373Z,5.196800232
2022-08-23T08:10:22.371Z,5.813920021
2022-08-23T08:11:20.530Z,5.058760166
2022-08-23T08:12:21.024Z,5.302360058
2022-08-23T08:13:18.071Z,5.213040352
2022-08-23T08:14:19.828Z,5.359200478
2022-08-23T08:15:17.055Z,5.359200478
2022-08-23T08:17:15.610Z,5.456640244
2022-08-23T08:18:25.637Z,5.862640381
2022-08-23T08:19:19.750Z,5.375440121
2022-08-23T08:20:16.312Z,5.407920361
2022-08-23T08:22:16.370Z,5.830160141
2022-08-23T08:23:17.920Z,5.627160072
2022-08-23T08:24:16.292Z,5.951960087
2022-08-23T08:25:19.666Z,5.221160412
2022-08-23T08:27:16.623Z,6.02504015
2022-08-23T08:28:16.443Z,6.560960293
2022-08-23T08:29:13.776Z,6.01692009
2022-08-23T08:30:16.017Z,6.268640518
2022-08-23T08:31:14.244Z,6.203680038
2022-08-23T08:32:18.307Z,6.877640247
2022-08-23T08:33:13.260Z,6.95884037
2022-08-23T08:34:18.697Z,7.169960499
2022-08-23T08:35:16.224Z,6.625920296
2022-08-23T08:37:19.074Z,6.828920364
2022-08-23T08:38:14.313Z,6.284880161
2022-08-23T08:39:16.508Z,6.723360062
2022-08-23T08:40:14.570Z,5.960080147
2022-08-23T08:42:16.410Z,6.447280407
2022-08-23T08:43:14.573Z,6.682760239
2022-08-23T08:44:18.964Z,5.578440189
2022-08-23T08:45:14.035Z,6.845160484
2022-08-23T08:46:16.586Z,5.724600315
2022-08-23T08:47:14.052Z,6.374200344
2022-08-23T08:48:19.071Z,6.52036047
2022-08-23T08:49:14.382Z,6.236160278
2022-08-23T08:50:19.556Z,5.960080147
2022-08-23T08:51:44.000Z,-0.056840003
2022-08-23T08:52:24.500Z,6.569080353
2022-08-23T08:53:23.028Z,6.187440395
2022-08-23T08:54:23.992Z,6.122480392
2022-08-23T08:55:19.958Z,5.684000015
2022-08-23T08:57:16.869Z,6.252400398
2022-08-23T08:58:17.844Z,6.219920158
2022-08-23T08:59:13.894Z,6.081880093
2022-08-23T09:00:14.921Z,6.244280338
2022-08-23T09:02:31.946Z,6.552840233
2022-08-23T09:02:33.154Z,6.552840233
2022-08-23T09:03:11.535Z,7.161840439
2022-08-23T09:04:08.093Z,6.431040287
2022-08-23T09:05:08.982Z,6.609680176
2022-08-23T09:06:05.625Z,6.52848053
2022-08-23T09:07:06.789Z,6.731480122
2022-08-23T09:08:03.363Z,6.333600044
2022-08-23T09:09:04.103Z,5.951960087
2022-08-23T09:10:01.177Z,6.682760239
2022-08-23T09:11:58.119Z,6.219920158
2022-08-23T09:12:56.577Z,5.627160072
2022-08-23T09:14:00.085Z,5.586560249
2022-08-23T09:14:53.634Z,5.748960495
2022-08-23T09:16:51.599Z,5.911360264
2022-08-23T09:17:54.479Z,5.148080349
2022-08-23T09:18:48.172Z,5.440400124
2022-08-23T09:19:51.626Z,5.148080349
2022-08-23T09:21:43.962Z,5.066880226
2022-08-23T09:22:44.781Z,5.943840027
2022-08-23T09:23:40.982Z,6.000680447
2022-08-23T09:24:44.258Z,5.221160412
2022-08-23T09:25:38.556Z,5.513480186
2022-08-23T09:26:41.382Z,5.562200069
2022-08-23T09:27:35.069Z,5.472880363
2022-08-23T09:28:33.564Z,4.709600449
2022-08-23T09:29:34.606Z,5.269880295
2022-08-23T09:31:08.300Z,6.114360332
2022-08-23T09:33:26.914Z,-0.064960003
2022-08-23T09:34:08.857Z,6.03316021
2022-08-23T09:35:11.528Z,5.407920361
2022-08-23T09:37:10.568Z,4.733960152
2022-08-23T09:38:07.921Z,4.790800095
2022-08-23T09:39:09.678Z,5.156200409
2022-08-23T09:40:06.483Z,4.222400188
2022-08-23T09:41:08.223Z,4.815160275
2022-08-23T09:42:05.492Z,4.774559975
2022-08-23T09:43:07.713Z,4.90447998
2022-08-23T09:44:05.093Z,4.709600449
2022-08-23T09:45:06.429Z,4.750200272
2022-08-23T09:46:03.758Z,4.01940012
2022-08-23T09:47:04.883Z,3.938200235
2022-08-23T09:48:02.257Z,4.076240063
2022-08-23T09:49:04.036Z,3.036880016
2022-08-23T09:50:00.532Z,3.79204011
2022-08-23T09:51:58.859Z,3.451000214
2022-08-23T09:53:00.354Z,3.012520075
2022-08-23T09:53:57.081Z,3.645880222
2022-08-23T09:54:58.449Z,3.345440149
2022-08-23T09:55:57.836Z,3.248000145
2022-08-23T09:56:54.997Z,3.532200098
2022-08-23T09:57:55.805Z,3.345440149
2022-08-23T09:58:52.229Z,3.272360086
2022-08-23T09:59:54.203Z,3.978800297
2022-08-23T10:01:52.336Z,3.329200268
2022-08-23T10:02:48.912Z,3.816400051
2022-08-23T10:03:50.265Z,3.191160202
2022-08-23T10:04:46.685Z,3.248000145
2022-08-23T10:06:45.025Z,3.109960079
2022-08-23T10:07:49.021Z,3.572800159
2022-08-23T10:08:43.527Z,3.540320158
2022-08-23T10:09:47.201Z,3.288600206
2022-08-23T10:11:42.851Z,3.605280161
2022-08-23T10:12:39.460Z,3.329200268
2022-08-23T10:13:41.380Z,3.905720234
2022-08-23T10:15:05.650Z,-0.081200004
2022-08-23T10:16:44.425Z,3.702720165
2022-08-23T10:17:44.917Z,3.028760195
2022-08-23T10:18:41.014Z,3.077480078
2022-08-23T10:19:40.944Z,2.647119999
2022-08-23T10:20:37.048Z,3.183040142
2022-08-23T10:21:36.999Z,2.963800192
2022-08-23T10:22:32.810Z,3.272360086
2022-08-23T10:23:35.934Z,3.061240196
2022-08-23T10:24:30.268Z,2.817640066
2022-08-23T10:25:27.859Z,2.622760057
2022-08-23T10:27:24.101Z,2.809520245
2022-08-23T10:28:26.230Z,2.622760057
2022-08-23T10:29:19.120Z,2.525320053
2022-08-23T10:30:17.114Z,2.574040174
2022-08-23T10:31:14.758Z,2.379160166
2022-08-23T10:32:13.094Z,2.655240059
2022-08-23T10:33:10.716Z,2.379160166
2022-08-23T10:33:18.698Z,2.379160166
2022-08-23T10:34:11.338Z,3.085600138
2022-08-23T10:35:07.124Z,2.955680132
2022-08-23T10:37:04.801Z,2.655240059
2022-08-23T10:38:00.912Z,2.70396018
2022-08-23T10:39:03.312Z,2.866360188
2022-08-23T10:40:00.322Z,2.744560242
2022-08-23T10:40:04.144Z,2.744560242
2022-08-23T10:43:49.664Z,-0.089320004
2022-08-23T10:44:11.407Z,2.801400185
2022-08-23T10:45:13.277Z,2.663360119
2022-08-23T10:47:11.355Z,2.720200062
2022-08-23T10:48:08.498Z,2.387279987
2022-08-23T10:49:09.498Z,2.614640236
2022-08-23T10:50:06.300Z,2.427880049
2022-08-23T10:52:07.065Z,2.655240059
2022-08-23T10:53:04.181Z,2.411640167
2022-08-23T10:54:05.133Z,2.785160065
2022-08-23T10:55:01.823Z,2.639000177
2022-08-23T10:56:03.158Z,2.744560242
2022-08-23T10:56:59.482Z,2.224880219
2022-08-23T10:58:03.445Z,2.47660017
2022-08-23T10:58:57.770Z,2.419760227
2022-08-23T10:59:58.759Z,2.224880219
2022-08-23T11:00:55.991Z,2.224880219
2022-08-23T11:01:57.347Z,2.509080172
2022-08-23T11:02:53.804Z,2.216760159
2022-08-23T11:03:57.427Z,2.444120169
2022-08-23T11:04:51.748Z,2.379160166
2022-08-23T11:05:52.774Z,2.094960213
2022-08-23T11:06:49.117Z,2.525320053
2022-08-23T11:07:51.396Z,2.330440044
2022-08-23T11:08:48.235Z,2.517199993
2022-08-23T11:09:52.156Z,2.549680233
2022-08-23T11:10:56.101Z,2.898840189
2022-08-23T11:10:56.118Z,2.898840189
2022-08-23T11:10:57.137Z,2.898840189
2022-08-23T11:12:47.593Z,2.69584012
2022-08-23T11:13:44.267Z,2.46036005
2022-08-23T11:14:48.778Z,2.500960112
2022-08-23T11:15:44.605Z,2.070600033
2022-08-23T11:16:44.175Z,2.403520107
2022-08-23T11:17:40.682Z,2.00564003
2022-08-23T11:18:44.942Z,2.444120169
2022-08-23T11:19:38.931Z,2.387279987
2022-08-23T11:20:42.812Z,2.46848011
2022-08-23T11:22:37.990Z,1.916320086
2022-08-23T11:23:34.492Z,2.24924016
2022-08-23T11:24:35.571Z,1.883840084
2022-08-23T11:25:34.662Z,1.875720024
2022-08-23T11:26:38.424Z,1.883840084
2022-08-23T11:27:32.931Z,1.981280088
2022-08-23T11:28:36.790Z,2.135560036
2022-08-23T11:31:54.617Z,2.216760159
2022-08-23T11:32:53.908Z,2.143680096
2022-08-23T11:33:49.943Z,1.688960075
2022-08-23T11:34:50.184Z,2.103080034
2022-08-23T11:35:45.490Z,1.810760021
2022-08-23T11:36:45.681Z,1.705200076
2022-08-23T11:37:41.496Z,1.883840084
2022-08-23T11:38:44.600Z,1.883840084
2022-08-23T11:39:39.782Z,1.770160079
2022-08-23T11:40:39.950Z,1.705200076